sensor_id;sensor_type;location;lat;lon;timestamp;P1;durP1;ratioP1;P2;durP2;ratioP2
7965;SDS011;4028;43.272;26.932;2023-02-22T00:01:51;5.37;;;3.87;;
7965;SDS011;4028;43.272;26.932;2023-02-22T00:04:35;4.70;;;4.20;;
7965;SDS011;4028;43.272;26.932;2023-02-22T00:07:02;4.50;;;3.97;;
7965;SDS011;4028;43.272;26.932;2023-02-22T00:09:28;4.00;;;3.60;;
7965;SDS011;4028;43.272;26.932;2023-02-22T00:11:54;5.93;;;4.70;;
7965;SDS011;4028;43.272;26.932;2023-02-22T00:14:19;5.67;;;4.10;;
7965;SDS011;4028;43.272;26.932;2023-02-22T00:16:45;4.90;;;4.10;;
7965;SDS011;4028;43.272;26.932;2023-02-22T00:19:10;4.77;;;4.00;;
7965;SDS011;4028;43.272;26.932;2023-02-22T00:21:36;4.87;;;4.17;;
7965;SDS011;4028;43.272;26.932;2023-02-22T00:24:01;5.10;;;4.03;;
7965;SDS011;4028;43.272;26.932;2023-02-22T00:26:46;6.40;;;4.67;;
7965;SDS011;4028;43.272;26.932;2023-02-22T00:29:14;6.93;;;4.67;;
7965;SDS011;4028;43.272;26.932;2023-02-22T00:31:39;6.50;;;4.20;;
7965;SDS011;4028;43.272;26.932;2023-02-22T00:34:04;7.00;;;4.63;;
7965;SDS011;4028;43.272;26.932;2023-02-22T00:36:30;6.53;;;4.43;;
7965;SDS011;4028;43.272;26.932;2023-02-22T00:38:55;5.30;;;4.13;;
7965;SDS011;4028;43.272;26.932;2023-02-22T00:41:21;4.60;;;4.10;;
7965;SDS011;4028;43.272;26.932;2023-02-22T00:43:46;5.00;;;4.10;;
7965;SDS011;4028;43.272;26.932;2023-02-22T00:46:12;5.70;;;4.23;;
7965;SDS011;4028;43.272;26.932;2023-02-22T00:48:38;8.07;;;5.00;;
7965;SDS011;4028;43.272;26.932;2023-02-22T00:51:04;6.27;;;5.17;;
7965;SDS011;4028;43.272;26.932;2023-02-22T00:53:30;5.00;;;4.50;;
7965;SDS011;4028;43.272;26.932;2023-02-22T00:55:55;7.43;;;4.57;;
7965;SDS011;4028;43.272;26.932;2023-02-22T00:58:21;5.97;;;4.57;;
7965;SDS011;4028;43.272;26.932;2023-02-22T01:00:47;8.13;;;4.73;;
7965;SDS011;4028;43.272;26.932;2023-02-22T01:03:14;5.90;;;4.70;;
7965;SDS011;4028;43.272;26.932;2023-02-22T01:05:42;5.43;;;4.27;;
7965;SDS011;4028;43.272;26.932;2023-02-22T01:08:08;5.37;;;4.63;;
7965;SDS011;4028;43.272;26.932;2023-02-22T01:10:36;5.13;;;4.50;;
7965;SDS011;4028;43.272;26.932;2023-02-22T01:13:02;6.77;;;4.80;;
7965;SDS011;4028;43.272;26.932;2023-02-22T01:15:32;4.87;;;4.37;;
7965;SDS011;4028;43.272;26.932;2023-02-22T01:17:59;5.33;;;4.63;;
7965;SDS011;4028;43.272;26.932;2023-02-22T01:20:28;10.83;;;4.77;;
7965;SDS011;4028;43.272;26.932;2023-02-22T01:22:54;5.03;;;4.20;;
7965;SDS011;4028;43.272;26.932;2023-02-22T01:25:23;6.40;;;4.73;;
7965;SDS011;4028;43.272;26.932;2023-02-22T01:27:53;6.67;;;4.63;;
7965;SDS011;4028;43.272;26.932;2023-02-22T01:30:21;7.07;;;4.97;;
7965;SDS011;4028;43.272;26.932;2023-02-22T01:32:49;5.03;;;4.37;;
7965;SDS011;4028;43.272;26.932;2023-02-22T01:35:18;7.60;;;4.53;;
7965;SDS011;4028;43.272;26.932;2023-02-22T01:37:46;6.20;;;4.20;;
7965;SDS011;4028;43.272;26.932;2023-02-22T01:40:20;5.53;;;4.40;;
7965;SDS011;4028;43.272;26.932;2023-02-22T01:42:52;9.07;;;4.33;;
7965;SDS011;4028;43.272;26.932;2023-02-22T01:48:03;7.43;;;4.73;;
7965;SDS011;4028;43.272;26.932;2023-02-22T01:50:34;5.07;;;4.23;;
7965;SDS011;4028;43.272;26.932;2023-02-22T01:53:04;6.63;;;4.63;;
7965;SDS011;4028;43.272;26.932;2023-02-22T01:55:32;4.83;;;4.30;;
7965;SDS011;4028;43.272;26.932;2023-02-22T01:58:00;6.20;;;4.77;;
7965;SDS011;4028;43.272;26.932;2023-02-22T02:00:26;5.07;;;4.30;;
7965;SDS011;4028;43.272;26.932;2023-02-22T02:02:55;5.67;;;4.30;;
7965;SDS011;4028;43.272;26.932;2023-02-22T02:05:33;4.93;;;4.30;;
7965;SDS011;4028;43.272;26.932;2023-02-22T02:08:02;6.10;;;4.30;;
7965;SDS011;4028;43.272;26.932;2023-02-22T02:10:37;5.27;;;4.70;;
7965;SDS011;4028;43.272;26.932;2023-02-22T02:13:03;4.53;;;4.10;;
7965;SDS011;4028;43.272;26.932;2023-02-22T02:15:31;5.33;;;4.60;;
7965;SDS011;4028;43.272;26.932;2023-02-22T02:18:08;5.97;;;4.77;;
7965;SDS011;4028;43.272;26.932;2023-02-22T02:23:37;4.97;;;3.97;;
7965;SDS011;4028;43.272;26.932;2023-02-22T02:29:23;5.83;;;4.83;;
7965;SDS011;4028;43.272;26.932;2023-02-22T02:32:10;8.00;;;4.80;;
7965;SDS011;4028;43.272;26.932;2023-02-22T02:39:53;5.70;;;4.00;;
7965;SDS011;4028;43.272;26.932;2023-02-22T02:42:35;6.57;;;4.90;;
7965;SDS011;4028;43.272;26.932;2023-02-22T02:45:17;6.17;;;4.70;;
7965;SDS011;4028;43.272;26.932;2023-02-22T02:47:50;6.03;;;4.53;;
7965;SDS011;4028;43.272;26.932;2023-02-22T02:50:24;5.37;;;4.60;;
7965;SDS011;4028;43.272;26.932;2023-02-22T02:52:54;6.90;;;4.97;;
7965;SDS011;4028;43.272;26.932;2023-02-22T02:55:23;4.97;;;4.17;;
7965;SDS011;4028;43.272;26.932;2023-02-22T02:57:49;6.30;;;4.30;;
7965;SDS011;4028;43.272;26.932;2023-02-22T03:00:16;6.80;;;4.67;;
7965;SDS011;4028;43.272;26.932;2023-02-22T03:06:38;5.87;;;5.00;;
7965;SDS011;4028;43.272;26.932;2023-02-22T03:11:14;7.73;;;4.77;;
7965;SDS011;4028;43.272;26.932;2023-02-22T03:19:36;6.40;;;4.83;;
7965;SDS011;4028;43.272;26.932;2023-02-22T03:30:08;7.20;;;4.87;;
7965;SDS011;4028;43.272;26.932;2023-02-22T03:32:36;5.33;;;4.73;;
7965;SDS011;4028;43.272;26.932;2023-02-22T03:35:07;6.73;;;4.77;;
7965;SDS011;4028;43.272;26.932;2023-02-22T03:37:38;7.23;;;4.57;;
7965;SDS011;4028;43.272;26.932;2023-02-22T03:40:07;8.73;;;5.13;;
7965;SDS011;4028;43.272;26.932;2023-02-22T03:42:39;6.13;;;4.47;;
7965;SDS011;4028;43.272;26.932;2023-02-22T03:45:10;6.30;;;4.50;;
7965;SDS011;4028;43.272;26.932;2023-02-22T03:47:40;6.20;;;4.80;;
7965;SDS011;4028;43.272;26.932;2023-02-22T03:50:15;6.87;;;4.37;;
7965;SDS011;4028;43.272;26.932;2023-02-22T03:52:54;5.37;;;4.63;;
7965;SDS011;4028;43.272;26.932;2023-02-22T03:55:20;8.40;;;4.90;;
7965;SDS011;4028;43.272;26.932;2023-02-22T03:57:48;5.20;;;4.70;;
7965;SDS011;4028;43.272;26.932;2023-02-22T04:00:22;5.40;;;4.73;;
7965;SDS011;4028;43.272;26.932;2023-02-22T04:02:51;5.43;;;4.87;;
7965;SDS011;4028;43.272;26.932;2023-02-22T04:05:16;10.13;;;5.50;;
7965;SDS011;4028;43.272;26.932;2023-02-22T04:07:42;6.07;;;4.90;;
7965;SDS011;4028;43.272;26.932;2023-02-22T04:10:09;6.87;;;4.70;;
7965;SDS011;4028;43.272;26.932;2023-02-22T04:12:36;11.03;;;7.93;;
7965;SDS011;4028;43.272;26.932;2023-02-22T04:15:02;21.80;;;14.17;;
7965;SDS011;4028;43.272;26.932;2023-02-22T04:17:29;7.03;;;5.10;;
7965;SDS011;4028;43.272;26.932;2023-02-22T04:19:55;5.70;;;5.10;;
7965;SDS011;4028;43.272;26.932;2023-02-22T04:22:20;6.77;;;4.83;;
7965;SDS011;4028;43.272;26.932;2023-02-22T04:24:46;6.57;;;4.90;;
7965;SDS011;4028;43.272;26.932;2023-02-22T04:27:13;6.57;;;4.83;;
7965;SDS011;4028;43.272;26.932;2023-02-22T04:29:39;7.10;;;5.63;;
7965;SDS011;4028;43.272;26.932;2023-02-22T04:32:05;7.27;;;5.17;;
7965;SDS011;4028;43.272;26.932;2023-02-22T04:34:30;5.43;;;4.80;;
7965;SDS011;4028;43.272;26.932;2023-02-22T04:36:56;9.33;;;5.67;;
7965;SDS011;4028;43.272;26.932;2023-02-22T04:39:21;10.73;;;5.10;;
7965;SDS011;4028;43.272;26.932;2023-02-22T04:41:47;6.33;;;4.67;;
7965;SDS011;4028;43.272;26.932;2023-02-22T04:44:12;7.83;;;5.20;;
7965;SDS011;4028;43.272;26.932;2023-02-22T04:46:38;7.57;;;4.93;;
7965;SDS011;4028;43.272;26.932;2023-02-22T04:49:04;5.50;;;5.00;;
7965;SDS011;4028;43.272;26.932;2023-02-22T04:51:29;7.20;;;6.50;;
7965;SDS011;4028;43.272;26.932;2023-02-22T04:53:55;8.40;;;7.20;;
7965;SDS011;4028;43.272;26.932;2023-02-22T04:56:21;6.53;;;5.83;;
7965;SDS011;4028;43.272;26.932;2023-02-22T04:58:47;9.27;;;5.53;;
7965;SDS011;4028;43.272;26.932;2023-02-22T05:01:13;6.30;;;5.70;;
7965;SDS011;4028;43.272;26.932;2023-02-22T05:03:40;6.80;;;5.93;;
7965;SDS011;4028;43.272;26.932;2023-02-22T05:06:06;7.40;;;6.10;;
7965;SDS011;4028;43.272;26.932;2023-02-22T05:08:32;6.60;;;5.80;;
7965;SDS011;4028;43.272;26.932;2023-02-22T05:10:57;6.17;;;5.53;;
7965;SDS011;4028;43.272;26.932;2023-02-22T05:13:23;6.33;;;5.20;;
7965;SDS011;4028;43.272;26.932;2023-02-22T05:15:48;6.50;;;5.73;;
7965;SDS011;4028;43.272;26.932;2023-02-22T05:18:14;6.03;;;5.20;;
7965;SDS011;4028;43.272;26.932;2023-02-22T05:20:39;6.80;;;6.20;;
7965;SDS011;4028;43.272;26.932;2023-02-22T05:23:05;6.93;;;5.13;;
7965;SDS011;4028;43.272;26.932;2023-02-22T05:25:30;5.90;;;5.40;;
7965;SDS011;4028;43.272;26.932;2023-02-22T05:28:04;8.03;;;5.43;;
7965;SDS011;4028;43.272;26.932;2023-02-22T05:30:35;7.37;;;5.10;;
7965;SDS011;4028;43.272;26.932;2023-02-22T05:33:03;7.53;;;5.70;;
7965;SDS011;4028;43.272;26.932;2023-02-22T05:35:29;7.03;;;5.50;;
7965;SDS011;4028;43.272;26.932;2023-02-22T05:37:55;13.33;;;8.23;;
7965;SDS011;4028;43.272;26.932;2023-02-22T05:40:22;6.13;;;5.53;;
7965;SDS011;4028;43.272;26.932;2023-02-22T05:42:49;5.83;;;4.30;;
7965;SDS011;4028;43.272;26.932;2023-02-22T05:45:16;6.77;;;4.97;;
7965;SDS011;4028;43.272;26.932;2023-02-22T05:47:43;5.53;;;4.50;;
7965;SDS011;4028;43.272;26.932;2023-02-22T05:50:09;6.33;;;5.40;;
7965;SDS011;4028;43.272;26.932;2023-02-22T05:52:34;5.53;;;4.37;;
7965;SDS011;4028;43.272;26.932;2023-02-22T05:55:00;7.67;;;5.63;;
7965;SDS011;4028;43.272;26.932;2023-02-22T05:57:25;7.33;;;6.27;;
7965;SDS011;4028;43.272;26.932;2023-02-22T05:59:51;9.53;;;6.17;;
7965;SDS011;4028;43.272;26.932;2023-02-22T06:02:16;8.53;;;5.30;;
7965;SDS011;4028;43.272;26.932;2023-02-22T06:04:45;6.80;;;4.50;;
7965;SDS011;4028;43.272;26.932;2023-02-22T06:07:11;6.80;;;4.80;;
7965;SDS011;4028;43.272;26.932;2023-02-22T06:09:38;5.90;;;4.17;;
7965;SDS011;4028;43.272;26.932;2023-02-22T06:12:03;8.73;;;4.90;;
7965;SDS011;4028;43.272;26.932;2023-02-22T06:14:29;7.57;;;4.80;;
7965;SDS011;4028;43.272;26.932;2023-02-22T06:16:55;5.83;;;4.83;;
7965;SDS011;4028;43.272;26.932;2023-02-22T06:19:21;5.47;;;4.97;;
7965;SDS011;4028;43.272;26.932;2023-02-22T06:21:51;4.80;;;3.80;;
7965;SDS011;4028;43.272;26.932;2023-02-22T06:24:18;6.87;;;4.30;;
7965;SDS011;4028;43.272;26.932;2023-02-22T06:26:44;5.13;;;4.13;;
7965;SDS011;4028;43.272;26.932;2023-02-22T06:29:09;6.27;;;4.10;;
7965;SDS011;4028;43.272;26.932;2023-02-22T06:31:35;5.13;;;4.20;;
7965;SDS011;4028;43.272;26.932;2023-02-22T06:34:01;5.27;;;4.70;;
7965;SDS011;4028;43.272;26.932;2023-02-22T06:36:27;6.77;;;5.03;;
7965;SDS011;4028;43.272;26.932;2023-02-22T06:38:54;7.20;;;5.30;;
7965;SDS011;4028;43.272;26.932;2023-02-22T06:41:20;5.87;;;5.30;;
7965;SDS011;4028;43.272;26.932;2023-02-22T06:43:46;5.60;;;4.70;;
7965;SDS011;4028;43.272;26.932;2023-02-22T06:46:12;6.10;;;4.43;;
7965;SDS011;4028;43.272;26.932;2023-02-22T06:48:38;4.87;;;4.37;;
7965;SDS011;4028;43.272;26.932;2023-02-22T06:51:05;5.00;;;4.40;;
7965;SDS011;4028;43.272;26.932;2023-02-22T06:53:32;5.90;;;5.20;;
7965;SDS011;4028;43.272;26.932;2023-02-22T06:55:58;7.07;;;4.70;;
7965;SDS011;4028;43.272;26.932;2023-02-22T06:58:24;4.70;;;3.73;;
7965;SDS011;4028;43.272;26.932;2023-02-22T07:00:51;4.83;;;4.13;;
7965;SDS011;4028;43.272;26.932;2023-02-22T07:03:17;5.13;;;4.37;;
7965;SDS011;4028;43.272;26.932;2023-02-22T07:05:43;6.57;;;3.67;;
7965;SDS011;4028;43.272;26.932;2023-02-22T07:08:08;5.87;;;4.83;;
7965;SDS011;4028;43.272;26.932;2023-02-22T07:10:35;6.23;;;4.70;;
7965;SDS011;4028;43.272;26.932;2023-02-22T07:13:02;6.03;;;4.30;;
7965;SDS011;4028;43.272;26.932;2023-02-22T07:15:31;4.53;;;4.13;;
7965;SDS011;4028;43.272;26.932;2023-02-22T07:17:57;5.23;;;4.23;;
7965;SDS011;4028;43.272;26.932;2023-02-22T07:20:24;4.78;;;4.22;;
7965;SDS011;4028;43.272;26.932;2023-02-22T07:22:51;6.82;;;5.20;;
7965;SDS011;4028;43.272;26.932;2023-02-22T07:25:17;8.30;;;6.25;;
7965;SDS011;4028;43.272;26.932;2023-02-22T07:27:43;5.10;;;4.50;;
7965;SDS011;4028;43.272;26.932;2023-02-22T07:30:14;5.45;;;4.22;;
7965;SDS011;4028;43.272;26.932;2023-02-22T07:32:43;5.95;;;4.57;;
7965;SDS011;4028;43.272;26.932;2023-02-22T07:35:17;5.80;;;5.20;;
7965;SDS011;4028;43.272;26.932;2023-02-22T07:37:47;8.57;;;6.15;;
7965;SDS011;4028;43.272;26.932;2023-02-22T07:40:13;5.13;;;4.30;;
7965;SDS011;4028;43.272;26.932;2023-02-22T07:45:25;4.68;;;4.20;;
7965;SDS011;4028;43.272;26.932;2023-02-22T07:47:59;5.47;;;4.55;;
7965;SDS011;4028;43.272;26.932;2023-02-22T07:50:26;8.57;;;4.70;;
7965;SDS011;4028;43.272;26.932;2023-02-22T07:52:55;7.55;;;4.80;;
7965;SDS011;4028;43.272;26.932;2023-02-22T07:55:22;5.40;;;4.57;;
7965;SDS011;4028;43.272;26.932;2023-02-22T07:57:50;8.43;;;4.90;;
7965;SDS011;4028;43.272;26.932;2023-02-22T08:00:36;5.43;;;4.90;;
7965;SDS011;4028;43.272;26.932;2023-02-22T08:03:04;6.45;;;5.25;;
7965;SDS011;4028;43.272;26.932;2023-02-22T08:05:32;5.63;;;5.13;;
7965;SDS011;4028;43.272;26.932;2023-02-22T08:07:58;5.88;;;4.60;;
7965;SDS011;4028;43.272;26.932;2023-02-22T08:10:24;5.28;;;4.78;;
7965;SDS011;4028;43.272;26.932;2023-02-22T08:12:50;4.57;;;4.10;;
7965;SDS011;4028;43.272;26.932;2023-02-22T08:15:38;5.95;;;4.93;;
7965;SDS011;4028;43.272;26.932;2023-02-22T08:18:05;5.82;;;5.35;;
7965;SDS011;4028;43.272;26.932;2023-02-22T08:20:33;5.47;;;4.90;;
7965;SDS011;4028;43.272;26.932;2023-02-22T08:22:59;8.20;;;4.63;;
7965;SDS011;4028;43.272;26.932;2023-02-22T08:25:25;6.63;;;5.00;;
7965;SDS011;4028;43.272;26.932;2023-02-22T08:27:54;4.03;;;3.72;;
7965;SDS011;4028;43.272;26.932;2023-02-22T08:30:23;6.47;;;3.83;;
7965;SDS011;4028;43.272;26.932;2023-02-22T08:32:49;7.32;;;4.65;;
7965;SDS011;4028;43.272;26.932;2023-02-22T08:35:15;5.50;;;3.75;;
7965;SDS011;4028;43.272;26.932;2023-02-22T08:37:46;5.50;;;3.90;;
7965;SDS011;4028;43.272;26.932;2023-02-22T08:40:14;4.55;;;4.15;;
7965;SDS011;4028;43.272;26.932;2023-02-22T08:42:43;4.53;;;4.13;;
7965;SDS011;4028;43.272;26.932;2023-02-22T08:45:09;4.45;;;3.85;;
7965;SDS011;4028;43.272;26.932;2023-02-22T08:47:35;4.75;;;4.30;;
7965;SDS011;4028;43.272;26.932;2023-02-22T08:50:01;5.70;;;3.97;;
7965;SDS011;4028;43.272;26.932;2023-02-22T08:52:27;5.10;;;4.50;;
7965;SDS011;4028;43.272;26.932;2023-02-22T08:54:53;5.93;;;3.85;;
7965;SDS011;4028;43.272;26.932;2023-02-22T08:57:19;4.30;;;3.90;;
7965;SDS011;4028;43.272;26.932;2023-02-22T08:59:45;5.15;;;4.10;;
7965;SDS011;4028;43.272;26.932;2023-02-22T09:02:15;5.20;;;3.60;;
7965;SDS011;4028;43.272;26.932;2023-02-22T09:04:42;4.68;;;4.28;;
7965;SDS011;4028;43.272;26.932;2023-02-22T09:07:08;4.15;;;3.75;;
7965;SDS011;4028;43.272;26.932;2023-02-22T09:09:33;4.68;;;3.80;;
7965;SDS011;4028;43.272;26.932;2023-02-22T09:11:59;5.50;;;4.65;;
7965;SDS011;4028;43.272;26.932;2023-02-22T09:14:25;4.88;;;3.47;;
7965;SDS011;4028;43.272;26.932;2023-02-22T09:16:51;6.15;;;3.22;;
7965;SDS011;4028;43.272;26.932;2023-02-22T09:19:16;4.57;;;3.25;;
7965;SDS011;4028;43.272;26.932;2023-02-22T09:21:42;3.53;;;3.22;;
7965;SDS011;4028;43.272;26.932;2023-02-22T09:24:07;4.75;;;3.40;;
7965;SDS011;4028;43.272;26.932;2023-02-22T09:26:33;6.63;;;3.72;;
7965;SDS011;4028;43.272;26.932;2023-02-22T09:29:03;3.65;;;3.35;;
7965;SDS011;4028;43.272;26.932;2023-02-22T09:31:31;4.75;;;3.70;;
7965;SDS011;4028;43.272;26.932;2023-02-22T09:33:59;7.13;;;4.22;;
7965;SDS011;4028;43.272;26.932;2023-02-22T09:36:24;3.40;;;3.10;;
7965;SDS011;4028;43.272;26.932;2023-02-22T09:38:50;5.90;;;2.85;;
7965;SDS011;4028;43.272;26.932;2023-02-22T09:41:19;5.57;;;3.55;;
7965;SDS011;4028;43.272;26.932;2023-02-22T09:47:01;5.68;;;2.92;;
7965;SDS011;4028;43.272;26.932;2023-02-22T09:55:08;4.10;;;3.03;;
7965;SDS011;4028;43.272;26.932;2023-02-22T09:57:44;3.88;;;3.10;;
7965;SDS011;4028;43.272;26.932;2023-02-22T10:00:16;4.13;;;3.15;;
7965;SDS011;4028;43.272;26.932;2023-02-22T10:02:57;3.13;;;2.92;;
7965;SDS011;4028;43.272;26.932;2023-02-22T10:05:40;3.13;;;2.92;;
7965;SDS011;4028;43.272;26.932;2023-02-22T10:08:15;4.10;;;2.83;;
7965;SDS011;4028;43.272;26.932;2023-02-22T10:10:43;5.88;;;2.78;;
7965;SDS011;4028;43.272;26.932;2023-02-22T10:15:58;3.75;;;2.55;;
7965;SDS011;4028;43.272;26.932;2023-02-22T10:27:12;4.38;;;2.70;;
7965;SDS011;4028;43.272;26.932;2023-02-22T10:29:53;3.00;;;2.67;;
7965;SDS011;4028;43.272;26.932;2023-02-22T10:32:45;2.63;;;2.42;;
7965;SDS011;4028;43.272;26.932;2023-02-22T10:35:22;3.00;;;2.70;;
7965;SDS011;4028;43.272;26.932;2023-02-22T10:37:51;4.00;;;2.50;;
7965;SDS011;4028;43.272;26.932;2023-02-22T10:40:20;3.35;;;2.40;;
7965;SDS011;4028;43.272;26.932;2023-02-22T10:42:56;3.13;;;2.58;;
7965;SDS011;4028;43.272;26.932;2023-02-22T10:45:27;4.63;;;2.55;;
7965;SDS011;4028;43.272;26.932;2023-02-22T10:47:56;3.40;;;2.13;;
7965;SDS011;4028;43.272;26.932;2023-02-22T10:50:26;7.45;;;2.55;;
7965;SDS011;4028;43.272;26.932;2023-02-22T10:52:54;2.72;;;2.15;;
7965;SDS011;4028;43.272;26.932;2023-02-22T10:55:20;2.40;;;2.20;;
7965;SDS011;4028;43.272;26.932;2023-02-22T10:57:46;3.55;;;2.20;;
7965;SDS011;4028;43.272;26.932;2023-02-22T11:02:57;2.10;;;1.85;;
7965;SDS011;4028;43.272;26.932;2023-02-22T11:05:45;2.35;;;2.10;;
7965;SDS011;4028;43.272;26.932;2023-02-22T11:10:45;2.17;;;1.98;;
7965;SDS011;4028;43.272;26.932;2023-02-22T11:13:22;4.13;;;2.20;;
7965;SDS011;4028;43.272;26.932;2023-02-22T11:16:39;2.30;;;2.03;;
7965;SDS011;4028;43.272;26.932;2023-02-22T11:19:10;7.55;;;2.30;;
7965;SDS011;4028;43.272;26.932;2023-02-22T11:21:50;2.28;;;2.00;;
7965;SDS011;4028;43.272;26.932;2023-02-22T11:24:22;2.30;;;2.00;;
7965;SDS011;4028;43.272;26.932;2023-02-22T11:26:50;3.65;;;2.20;;
7965;SDS011;4028;43.272;26.932;2023-02-22T11:31:52;2.70;;;2.47;;
7965;SDS011;4028;43.272;26.932;2023-02-22T11:34:33;2.40;;;1.85;;
7965;SDS011;4028;43.272;26.932;2023-02-22T11:40:02;3.20;;;2.15;;
7965;SDS011;4028;43.272;26.932;2023-02-22T11:42:30;2.60;;;2.15;;
7965;SDS011;4028;43.272;26.932;2023-02-22T11:45:09;2.30;;;1.90;;
7965;SDS011;4028;43.272;26.932;2023-02-22T11:50:33;1.83;;;1.73;;
7965;SDS011;4028;43.272;26.932;2023-02-22T12:04:58;2.90;;;2.70;;
7965;SDS011;4028;43.272;26.932;2023-02-22T12:07:49;2.65;;;2.17;;
7965;SDS011;4028;43.272;26.932;2023-02-22T12:13:28;2.55;;;2.15;;
7965;SDS011;4028;43.272;26.932;2023-02-22T12:16:16;4.72;;;2.85;;
7965;SDS011;4028;43.272;26.932;2023-02-22T12:21:43;2.10;;;1.90;;
7965;SDS011;4028;43.272;26.932;2023-02-22T12:24:17;5.28;;;2.47;;
7965;SDS011;4028;43.272;26.932;2023-02-22T12:26:52;4.18;;;2.50;;
7965;SDS011;4028;43.272;26.932;2023-02-22T12:29:33;3.60;;;2.28;;
7965;SDS011;4028;43.272;26.932;2023-02-22T12:32:12;3.17;;;1.90;;
7965;SDS011;4028;43.272;26.932;2023-02-22T12:34:52;2.25;;;1.90;;
7965;SDS011;4028;43.272;26.932;2023-02-22T12:43:10;3.40;;;2.42;;
7965;SDS011;4028;43.272;26.932;2023-02-22T12:56:38;2.08;;;1.95;;
7965;SDS011;4028;43.272;26.932;2023-02-22T12:59:20;2.20;;;1.77;;
7965;SDS011;4028;43.272;26.932;2023-02-22T13:01:55;4.28;;;1.80;;
7965;SDS011;4028;43.272;26.932;2023-02-22T13:04:24;1.75;;;1.65;;
7965;SDS011;4028;43.272;26.932;2023-02-22T13:18:23;2.65;;;1.92;;
7965;SDS011;4028;43.272;26.932;2023-02-22T13:21:15;2.22;;;2.00;;
7965;SDS011;4028;43.272;26.932;2023-02-22T13:24:00;2.22;;;1.90;;
7965;SDS011;4028;43.272;26.932;2023-02-22T13:26:44;1.80;;;1.65;;
7965;SDS011;4028;43.272;26.932;2023-02-22T13:37:35;3.45;;;2.40;;
7965;SDS011;4028;43.272;26.932;2023-02-22T13:43:29;5.32;;;4.70;;
7965;SDS011;4028;43.272;26.932;2023-02-22T13:51:53;4.25;;;2.50;;
7965;SDS011;4028;43.272;26.932;2023-02-22T13:57:16;1.73;;;1.63;;
7965;SDS011;4028;43.272;26.932;2023-02-22T13:59:46;2.08;;;1.88;;
7965;SDS011;4028;43.272;26.932;2023-02-22T14:04:59;2.40;;;1.75;;
7965;SDS011;4028;43.272;26.932;2023-02-22T14:07:58;6.30;;;1.90;;
7965;SDS011;4028;43.272;26.932;2023-02-22T14:13:05;3.90;;;2.25;;
7965;SDS011;4028;43.272;26.932;2023-02-22T14:15:31;7.97;;;2.10;;
7965;SDS011;4028;43.272;26.932;2023-02-22T14:17:58;2.78;;;1.88;;
7965;SDS011;4028;43.272;26.932;2023-02-22T14:20:38;4.68;;;1.70;;
7965;SDS011;4028;43.272;26.932;2023-02-22T14:25:48;4.57;;;1.90;;
7965;SDS011;4028;43.272;26.932;2023-02-22T14:31:29;2.65;;;1.83;;
7965;SDS011;4028;43.272;26.932;2023-02-22T14:34:13;2.95;;;1.73;;
7965;SDS011;4028;43.272;26.932;2023-02-22T14:39:22;4.30;;;3.63;;
7965;SDS011;4028;43.272;26.932;2023-02-22T14:42:04;3.03;;;2.70;;
7965;SDS011;4028;43.272;26.932;2023-02-22T14:44:42;5.28;;;3.55;;
7965;SDS011;4028;43.272;26.932;2023-02-22T14:50:06;3.15;;;2.42;;
7965;SDS011;4028;43.272;26.932;2023-02-22T14:52:38;5.30;;;2.50;;
7965;SDS011;4028;43.272;26.932;2023-02-22T15:00:25;9.35;;;7.18;;
7965;SDS011;4028;43.272;26.932;2023-02-22T15:02:56;3.92;;;3.63;;
7965;SDS011;4028;43.272;26.932;2023-02-22T15:05:26;9.65;;;3.90;;
7965;SDS011;4028;43.272;26.932;2023-02-22T15:07:58;5.67;;;4.17;;
7965;SDS011;4028;43.272;26.932;2023-02-22T15:13:20;7.83;;;4.23;;
7965;SDS011;4028;43.272;26.932;2023-02-22T15:15:54;3.90;;;3.47;;
7965;SDS011;4028;43.272;26.932;2023-02-22T15:20:57;4.83;;;3.30;;
7965;SDS011;4028;43.272;26.932;2023-02-22T15:23:29;4.70;;;3.40;;
7965;SDS011;4028;43.272;26.932;2023-02-22T15:26:05;5.67;;;3.30;;
7965;SDS011;4028;43.272;26.932;2023-02-22T15:28:31;4.57;;;3.00;;
7965;SDS011;4028;43.272;26.932;2023-02-22T15:31:13;4.97;;;3.00;;
7965;SDS011;4028;43.272;26.932;2023-02-22T15:33:40;9.00;;;4.40;;
7965;SDS011;4028;43.272;26.932;2023-02-22T15:36:11;8.97;;;4.20;;
7965;SDS011;4028;43.272;26.932;2023-02-22T15:38:39;5.57;;;4.10;;
7965;SDS011;4028;43.272;26.932;2023-02-22T15:41:05;5.43;;;3.70;;
7965;SDS011;4028;43.272;26.932;2023-02-22T15:43:37;8.40;;;4.27;;
7965;SDS011;4028;43.272;26.932;2023-02-22T15:46:04;6.30;;;5.40;;
7965;SDS011;4028;43.272;26.932;2023-02-22T15:48:31;7.30;;;4.10;;
7965;SDS011;4028;43.272;26.932;2023-02-22T15:53:47;6.17;;;3.13;;
7965;SDS011;4028;43.272;26.932;2023-02-22T15:56:16;4.97;;;3.07;;
7965;SDS011;4028;43.272;26.932;2023-02-22T15:58:47;3.67;;;3.10;;
7965;SDS011;4028;43.272;26.932;2023-02-22T16:01:14;6.63;;;4.03;;
7965;SDS011;4028;43.272;26.932;2023-02-22T16:06:29;4.47;;;2.63;;
7965;SDS011;4028;43.272;26.932;2023-02-22T16:09:01;4.63;;;2.83;;
7965;SDS011;4028;43.272;26.932;2023-02-22T16:11:32;5.17;;;2.50;;
7965;SDS011;4028;43.272;26.932;2023-02-22T16:14:04;4.63;;;2.73;;
7965;SDS011;4028;43.272;26.932;2023-02-22T16:16:35;5.37;;;2.53;;
7965;SDS011;4028;43.272;26.932;2023-02-22T16:21:56;3.30;;;2.80;;
7965;SDS011;4028;43.272;26.932;2023-02-22T16:24:31;7.10;;;3.37;;
7965;SDS011;4028;43.272;26.932;2023-02-22T16:27:02;6.50;;;2.60;;
7965;SDS011;4028;43.272;26.932;2023-02-22T16:29:37;4.37;;;2.87;;
7965;SDS011;4028;43.272;26.932;2023-02-22T16:32:02;4.83;;;2.50;;
7965;SDS011;4028;43.272;26.932;2023-02-22T16:34:28;5.67;;;2.67;;
7965;SDS011;4028;43.272;26.932;2023-02-22T16:36:54;5.33;;;2.73;;
7965;SDS011;4028;43.272;26.932;2023-02-22T16:39:29;8.00;;;2.40;;
7965;SDS011;4028;43.272;26.932;2023-02-22T16:41:57;5.73;;;2.30;;
7965;SDS011;4028;43.272;26.932;2023-02-22T16:44:24;3.60;;;2.43;;
7965;SDS011;4028;43.272;26.932;2023-02-22T16:46:51;6.60;;;2.90;;
7965;SDS011;4028;43.272;26.932;2023-02-22T16:49:17;6.37;;;3.80;;
7965;SDS011;4028;43.272;26.932;2023-02-22T16:51:45;7.27;;;4.07;;
7965;SDS011;4028;43.272;26.932;2023-02-22T16:54:15;4.13;;;3.73;;
7965;SDS011;4028;43.272;26.932;2023-02-22T16:56:45;5.30;;;3.87;;
7965;SDS011;4028;43.272;26.932;2023-02-22T16:59:11;5.00;;;3.63;;
7965;SDS011;4028;43.272;26.932;2023-02-22T17:01:39;3.50;;;2.60;;
7965;SDS011;4028;43.272;26.932;2023-02-22T17:04:09;3.97;;;2.80;;
7965;SDS011;4028;43.272;26.932;2023-02-22T17:06:38;4.40;;;2.87;;
7965;SDS011;4028;43.272;26.932;2023-02-22T17:09:04;5.43;;;3.20;;
7965;SDS011;4028;43.272;26.932;2023-02-22T17:11:29;5.83;;;3.40;;
7965;SDS011;4028;43.272;26.932;2023-02-22T17:13:55;9.43;;;3.63;;
7965;SDS011;4028;43.272;26.932;2023-02-22T17:16:20;6.67;;;3.27;;
7965;SDS011;4028;43.272;26.932;2023-02-22T17:18:46;2.97;;;2.47;;
7965;SDS011;4028;43.272;26.932;2023-02-22T17:21:13;4.83;;;4.00;;
7965;SDS011;4028;43.272;26.932;2023-02-22T17:23:40;4.87;;;3.90;;
7965;SDS011;4028;43.272;26.932;2023-02-22T17:26:10;10.60;;;7.93;;
7965;SDS011;4028;43.272;26.932;2023-02-22T17:28:37;6.33;;;4.90;;
7965;SDS011;4028;43.272;26.932;2023-02-22T17:31:03;5.60;;;4.20;;
7965;SDS011;4028;43.272;26.932;2023-02-22T17:33:30;7.70;;;4.80;;
7965;SDS011;4028;43.272;26.932;2023-02-22T17:35:59;7.07;;;5.43;;
7965;SDS011;4028;43.272;26.932;2023-02-22T17:38:26;6.40;;;3.97;;
7965;SDS011;4028;43.272;26.932;2023-02-22T17:40:54;3.70;;;3.17;;
7965;SDS011;4028;43.272;26.932;2023-02-22T17:43:21;7.70;;;4.10;;
7965;SDS011;4028;43.272;26.932;2023-02-22T17:45:47;3.27;;;2.90;;
7965;SDS011;4028;43.272;26.932;2023-02-22T17:48:13;4.37;;;3.53;;
7965;SDS011;4028;43.272;26.932;2023-02-22T17:50:40;6.13;;;3.50;;
7965;SDS011;4028;43.272;26.932;2023-02-22T17:53:07;5.43;;;3.10;;
7965;SDS011;4028;43.272;26.932;2023-02-22T17:55:35;5.10;;;2.67;;
7965;SDS011;4028;43.272;26.932;2023-02-22T17:58:03;4.97;;;3.20;;
7965;SDS011;4028;43.272;26.932;2023-02-22T18:00:32;4.33;;;2.90;;
7965;SDS011;4028;43.272;26.932;2023-02-22T18:03:04;3.43;;;2.73;;
7965;SDS011;4028;43.272;26.932;2023-02-22T18:05:32;2.97;;;2.40;;
7965;SDS011;4028;43.272;26.932;2023-02-22T18:08:05;9.27;;;3.00;;